createdAt,value
2018-04-13T00:00:14.305Z,59.83
2018-04-13T00:02:42.667Z,59.39
2018-04-13T00:05:11.033Z,58.57
2018-04-13T00:07:39.438Z,57.23
2018-04-13T00:10:07.790Z,57.94
2018-04-13T00:12:36.222Z,59.25
2018-04-13T00:15:04.572Z,58.53
2018-04-13T00:17:32.915Z,60.38
2018-04-13T00:20:01.270Z,60.07
2018-04-13T00:22:29.617Z,59.56
2018-04-13T00:24:58.014Z,58.47
2018-04-13T00:27:26.396Z,59.19
2018-04-13T00:29:54.814Z,61.37
2018-04-13T00:32:23.366Z,62.40
2018-04-13T00:34:51.799Z,60.06
2018-04-13T00:37:20.181Z,60.81
2018-04-13T00:39:48.532Z,61.70
2018-04-13T00:42:16.921Z,59.53
2018-04-13T00:44:45.273Z,59.03
2018-04-13T00:47:13.723Z,59.80
2018-04-13T00:49:42.087Z,60.77
2018-04-13T00:52:10.461Z,60.03
2018-04-13T00:54:38.827Z,58.91
2018-04-13T00:57:07.210Z,59.13
2018-04-13T00:59:35.621Z,58.30
2018-04-13T01:02:04.060Z,57.30
2018-04-13T01:04:32.419Z,58.92
2018-04-13T01:07:00.765Z,61.20
2018-04-13T01:09:29.166Z,62.25
2018-04-13T01:11:57.595Z,60.77
2018-04-13T01:14:26.045Z,58.51
2018-04-13T01:16:54.405Z,58.06
2018-04-13T01:19:22.867Z,57.89
2018-04-13T01:21:51.243Z,56.95
2018-04-13T01:24:19.835Z,56.87
2018-04-13T01:26:48.214Z,56.68
2018-04-13T01:29:16.598Z,56.99
2018-04-13T01:31:44.989Z,56.45
2018-04-13T01:34:13.374Z,57.80
2018-04-13T01:36:41.785Z,57.51
2018-04-13T01:39:10.140Z,57.21
2018-04-13T01:41:38.506Z,57.68
2018-04-13T01:44:06.865Z,58.02
2018-04-13T01:46:35.342Z,56.96
2018-04-13T01:49:03.741Z,56.01
2018-04-13T01:51:32.100Z,56.99
2018-04-13T01:54:00.524Z,56.21
2018-04-13T01:56:28.868Z,57.24
2018-04-13T01:58:57.226Z,56.48
2018-04-13T02:01:25.581Z,57.71
2018-04-13T02:03:53.931Z,56.71
2018-04-13T02:06:22.298Z,58.07
2018-04-13T02:08:50.671Z,58.19
2018-04-13T02:11:19.034Z,58.82
2018-04-13T02:13:47.402Z,57.25
2018-04-13T02:16:15.761Z,58.29
2018-04-13T02:18:44.128Z,57.69
2018-04-13T02:21:12.492Z,58.60
2018-04-13T02:23:40.842Z,59.14
2018-04-13T02:26:09.362Z,61.32
2018-04-13T02:28:37.837Z,61.25
2018-04-13T02:31:06.337Z,60.98
2018-04-13T02:33:34.760Z,59.72
2018-04-13T02:36:03.198Z,60.68
2018-04-13T02:38:31.611Z,62.32
2018-04-13T02:41:00.035Z,64.00
2018-04-13T02:43:28.407Z,64.58
2018-04-13T02:45:56.772Z,65.69
2018-04-13T02:48:25.189Z,65.57
2018-04-13T02:50:53.806Z,62.95
2018-04-13T02:53:22.213Z,63.56
2018-04-13T02:55:50.596Z,62.53
2018-04-13T02:58:18.997Z,62.78
2018-04-13T03:00:59.353Z,61.75
2018-04-13T03:03:27.701Z,61.63
2018-04-13T03:05:56.113Z,61.31
2018-04-13T03:08:24.503Z,59.02
2018-04-13T03:10:52.850Z,59.33
2018-04-13T03:13:21.266Z,60.06
2018-04-13T03:15:49.641Z,60.80
2018-04-13T03:18:18.050Z,61.00
2018-04-13T03:20:46.423Z,61.46
2018-04-13T03:23:14.784Z,62.25
2018-04-13T03:25:43.166Z,61.42
2018-04-13T03:28:11.540Z,59.29
2018-04-13T03:30:40.056Z,58.71
2018-04-13T03:33:08.463Z,58.67
2018-04-13T03:35:36.862Z,57.78
2018-04-13T03:38:05.339Z,58.28
2018-04-13T03:40:33.790Z,59.05
2018-04-13T03:43:02.195Z,58.50
2018-04-13T03:45:30.609Z,59.13
2018-04-13T03:47:58.981Z,59.79
2018-04-13T03:50:27.389Z,58.61
2018-04-13T03:52:55.821Z,58.74
2018-04-13T03:55:24.217Z,59.10
2018-04-13T03:57:52.664Z,58.95
2018-04-13T04:00:21.064Z,58.99
2018-04-13T04:02:49.464Z,60.04
2018-04-13T04:05:17.861Z,58.97
2018-04-13T04:07:46.222Z,56.58
2018-04-13T04:10:14.649Z,55.87
2018-04-13T04:12:43.009Z,55.69
2018-04-13T04:15:11.369Z,55.15
2018-04-13T04:17:39.729Z,55.19
2018-04-13T04:20:19.858Z,57.71
2018-04-13T04:23:00.145Z,58.86
2018-04-13T04:28:31.473Z,56.42
2018-04-13T04:30:59.833Z,56.40
2018-04-13T04:33:28.223Z,56.24
2018-04-13T04:35:56.601Z,56.37
2018-04-13T04:38:24.989Z,55.46
2018-04-13T04:40:53.425Z,55.29
2018-04-13T04:43:21.802Z,58.07
2018-04-13T04:45:50.171Z,58.89
2018-04-13T04:48:18.549Z,58.63
2018-04-13T04:50:46.917Z,59.92
2018-04-13T04:53:15.312Z,59.26
2018-04-13T04:55:43.690Z,58.71
2018-04-13T04:58:12.775Z,58.53
2018-04-13T05:00:41.161Z,60.51
2018-04-13T05:03:09.563Z,60.74
2018-04-13T05:05:37.971Z,61.36
2018-04-13T05:08:06.350Z,60.79
2018-04-13T05:10:34.714Z,62.46
2018-04-13T05:13:03.085Z,61.82
2018-04-13T05:15:31.482Z,62.00
2018-04-13T05:17:59.867Z,61.18
2018-04-13T05:20:29.198Z,60.37
2018-04-13T05:22:57.556Z,60.63
2018-04-13T05:25:25.923Z,60.65
2018-04-13T05:27:54.290Z,61.84
2018-04-13T05:30:22.665Z,59.99
2018-04-13T05:32:51.058Z,58.75
2018-04-13T05:35:19.539Z,57.66
2018-04-13T05:37:47.883Z,56.92
2018-04-13T05:40:16.403Z,59.51
2018-04-13T05:42:44.846Z,59.05
2018-04-13T05:45:13.246Z,57.86
2018-04-13T05:47:41.612Z,58.48
2018-04-13T05:50:10.431Z,58.09
2018-04-13T05:52:38.896Z,58.34
2018-04-13T05:55:07.297Z,59.60
2018-04-13T05:57:35.824Z,61.10
2018-04-13T06:00:04.206Z,63.34
2018-04-13T06:02:32.656Z,64.33
2018-04-13T06:05:01.039Z,64.69
2018-04-13T06:07:29.482Z,65.15
2018-04-13T06:09:57.882Z,64.13
2018-04-13T06:12:26.353Z,63.19
2018-04-13T06:14:54.831Z,62.27
2018-04-13T06:17:23.400Z,58.20
2018-04-13T06:19:51.887Z,58.54
2018-04-13T06:22:20.289Z,59.36
2018-04-13T06:24:48.834Z,61.22
2018-04-13T06:27:17.236Z,59.69
2018-04-13T06:29:45.756Z,59.69
2018-04-13T06:32:14.177Z,60.46
2018-04-13T06:34:42.581Z,61.18
2018-04-13T06:37:11.003Z,61.31
2018-04-13T06:39:39.414Z,61.68
2018-04-13T06:42:07.892Z,62.04
2018-04-13T06:44:36.299Z,62.63
2018-04-13T06:47:04.730Z,62.54
2018-04-13T06:49:33.119Z,62.41
2018-04-13T06:52:01.488Z,60.94
2018-04-13T06:54:29.917Z,62.07
2018-04-13T06:56:58.300Z,63.66
2018-04-13T06:59:26.681Z,62.32
2018-04-13T07:01:55.060Z,60.77
2018-04-13T07:04:23.464Z,62.12
2018-04-13T07:06:51.939Z,59.98
2018-04-13T07:09:20.349Z,61.03
2018-04-13T07:11:48.769Z,60.59
2018-04-13T07:14:17.195Z,62.26
2018-04-13T07:16:45.611Z,62.97
2018-04-13T07:19:14.902Z,62.64
2018-04-13T07:21:43.289Z,61.02
2018-04-13T07:24:11.714Z,64.72
2018-04-13T07:26:40.194Z,62.96
2018-04-13T07:29:08.601Z,62.03
2018-04-13T07:31:37.053Z,60.53
2018-04-13T07:34:05.957Z,60.41
2018-04-13T07:36:33.922Z,58.96
2018-04-13T07:39:02.375Z,59.73
2018-04-13T07:41:30.744Z,60.36
2018-04-13T07:43:59.172Z,59.01
2018-04-13T07:46:27.588Z,60.00
2018-04-13T07:48:56.063Z,60.57
2018-04-13T07:51:24.627Z,59.21
2018-04-13T07:53:52.861Z,58.54
2018-04-13T07:56:21.259Z,57.29
2018-04-13T07:58:49.648Z,57.12
2018-04-13T08:01:18.098Z,57.75
2018-04-13T08:03:46.478Z,58.15
2018-04-13T08:06:14.867Z,57.34
2018-04-13T08:08:43.238Z,58.03
2018-04-13T08:11:11.611Z,58.12
2018-04-13T08:13:40.047Z,58.39
2018-04-13T08:16:08.433Z,58.08
2018-04-13T08:18:36.822Z,58.54
2018-04-13T08:21:05.194Z,59.06
2018-04-13T08:23:33.585Z,60.94
2018-04-13T08:26:02.022Z,58.48
2018-04-13T08:28:30.441Z,60.05
2018-04-13T08:30:58.858Z,60.81
2018-04-13T08:33:27.219Z,59.11
2018-04-13T08:35:55.627Z,59.07
2018-04-13T08:38:24.162Z,59.16
2018-04-13T08:40:52.573Z,58.33
2018-04-13T08:43:21.049Z,59.48
2018-04-13T08:45:49.471Z,60.54
2018-04-13T08:48:17.861Z,60.46
2018-04-13T08:50:46.414Z,61.79
2018-04-13T08:53:14.795Z,61.40
2018-04-13T08:55:43.237Z,61.44
2018-04-13T08:58:11.666Z,62.93
2018-04-13T09:00:40.885Z,63.09
2018-04-13T09:03:09.325Z,65.24
2018-04-13T09:05:37.729Z,62.44
2018-04-13T09:08:06.184Z,63.07
2018-04-13T09:10:34.584Z,63.33
2018-04-13T09:13:03.051Z,64.77
2018-04-13T09:15:31.454Z,64.77
2018-04-13T09:17:59.842Z,64.26
2018-04-13T09:20:28.332Z,65.01
2018-04-13T09:22:56.955Z,65.08
2018-04-13T09:25:25.356Z,64.97
2018-04-13T09:27:53.796Z,66.35
2018-04-13T09:30:22.196Z,64.40
2018-04-13T09:32:50.815Z,64.11
2018-04-13T09:35:19.371Z,63.22
2018-04-13T09:37:47.808Z,63.63
2018-04-13T09:40:16.206Z,64.44
2018-04-13T09:42:44.602Z,62.98
2018-04-13T09:45:13.042Z,63.23
2018-04-13T09:47:41.448Z,63.20
2018-04-13T09:50:09.864Z,64.16
2018-04-13T09:52:38.259Z,63.53
2018-04-13T09:55:06.959Z,64.37
2018-04-13T09:57:35.369Z,63.91
2018-04-13T10:00:04.191Z,64.80
2018-04-13T10:02:38.021Z,63.49
2018-04-13T10:05:12.212Z,63.83
2018-04-13T10:07:40.611Z,64.16
2018-04-13T10:10:09.128Z,64.37
2018-04-13T10:12:37.705Z,64.31
2018-04-13T10:15:06.085Z,63.62
2018-04-13T10:17:34.491Z,61.88
2018-04-13T10:20:02.901Z,60.77
2018-04-13T10:22:31.321Z,60.01
2018-04-13T10:24:59.783Z,61.00
2018-04-13T10:27:28.165Z,61.59
2018-04-13T10:29:56.557Z,63.64
2018-04-13T10:32:24.945Z,62.73
2018-04-13T10:34:53.310Z,61.80
2018-04-13T10:37:21.854Z,63.61
2018-04-13T10:39:50.221Z,61.10
2018-04-13T10:42:18.579Z,62.47
2018-04-13T10:44:47.002Z,61.99
2018-04-13T10:47:15.443Z,57.83
2018-04-13T10:49:43.869Z,58.26
2018-04-13T10:52:12.235Z,57.76
2018-04-13T10:54:41.553Z,56.90
2018-04-13T10:57:09.942Z,55.47
2018-04-13T10:59:38.583Z,56.33
2018-04-13T11:02:07.530Z,57.87
2018-04-13T11:04:35.967Z,58.97
2018-04-13T11:07:04.373Z,60.66
2018-04-13T11:09:32.788Z,62.04
2018-04-13T11:12:01.212Z,61.59
2018-04-13T11:14:29.667Z,62.06
2018-04-13T11:16:58.070Z,60.50
2018-04-13T11:19:26.538Z,61.78
2018-04-13T11:21:55.050Z,60.69
2018-04-13T11:24:23.623Z,61.55
2018-04-13T11:26:53.364Z,59.90
2018-04-13T11:29:21.786Z,60.15
2018-04-13T11:31:50.385Z,61.56
2018-04-13T11:34:19.182Z,63.11
2018-04-13T11:36:47.619Z,62.42
2018-04-13T11:39:16.030Z,62.87
2018-04-13T11:41:44.441Z,62.99
2018-04-13T11:44:12.851Z,62.02
2018-04-13T11:46:41.267Z,62.74
2018-04-13T11:49:09.741Z,63.15
2018-04-13T11:51:38.228Z,61.27
2018-04-13T11:54:06.923Z,63.33
2018-04-13T11:56:35.322Z,64.56
2018-04-13T11:59:03.762Z,64.59
2018-04-13T12:01:32.316Z,63.81
2018-04-13T12:04:00.972Z,61.32
2018-04-13T12:06:29.457Z,62.40
2018-04-13T12:08:57.902Z,62.52
2018-04-13T12:11:26.804Z,63.28
2018-04-13T12:13:55.748Z,61.16
2018-04-13T12:16:24.160Z,62.56
2018-04-13T12:18:52.723Z,64.19
2018-04-13T12:21:21.188Z,59.69
2018-04-13T12:23:49.787Z,60.72
2018-04-13T12:26:18.214Z,59.93
2018-04-13T12:28:46.677Z,60.46
2018-04-13T12:31:15.223Z,57.92
2018-04-13T12:33:46.671Z,58.14
2018-04-13T12:36:15.096Z,60.01
2018-04-13T12:38:43.514Z,58.62
2018-04-13T12:41:12.658Z,55.93
2018-04-13T12:43:41.070Z,53.49
2018-04-13T12:46:09.470Z,55.52
2018-04-13T12:48:37.892Z,54.78
2018-04-13T12:51:06.274Z,54.81
2018-04-13T12:53:34.829Z,55.24
2018-04-13T12:56:03.308Z,55.64
2018-04-13T12:58:31.682Z,56.63
2018-04-13T13:01:00.066Z,56.57
2018-04-13T13:03:28.438Z,56.62
2018-04-13T13:05:56.874Z,57.57
2018-04-13T13:08:25.266Z,58.39
2018-04-13T13:10:53.671Z,57.52
2018-04-13T13:13:22.106Z,57.57
2018-04-13T13:15:50.530Z,58.62
2018-04-13T13:18:18.902Z,57.94
2018-04-13T13:20:47.323Z,57.31
2018-04-13T13:23:15.719Z,58.76
2018-04-13T13:25:44.147Z,59.55
2018-04-13T13:28:13.711Z,60.24
2018-04-13T13:30:42.160Z,59.16
2018-04-13T13:33:10.543Z,58.58
2018-04-13T13:35:38.928Z,60.28
2018-04-13T13:38:07.344Z,59.80
2018-04-13T13:40:35.795Z,61.65
2018-04-13T13:43:04.189Z,59.70
2018-04-13T13:45:32.585Z,60.16
2018-04-13T13:48:00.967Z,62.01
2018-04-13T13:50:29.329Z,61.55
2018-04-13T13:52:57.751Z,61.60
2018-04-13T13:55:26.231Z,62.17
2018-04-13T13:57:54.667Z,61.23
2018-04-13T14:00:23.031Z,62.80
2018-04-13T14:02:51.473Z,64.97
2018-04-13T14:05:19.865Z,62.85
2018-04-13T14:07:48.344Z,62.59
2018-04-13T14:10:16.774Z,62.07
2018-04-13T14:12:45.153Z,61.44
2018-04-13T14:15:13.524Z,62.43
2018-04-13T14:17:41.901Z,62.29
2018-04-13T14:20:10.263Z,63.37
2018-04-13T14:22:38.709Z,63.24
2018-04-13T14:25:07.079Z,62.65
2018-04-13T14:27:35.539Z,63.62
2018-04-13T14:30:04.003Z,63.01
2018-04-13T14:32:32.477Z,62.75
2018-04-13T14:35:00.977Z,62.99
2018-04-13T14:37:29.449Z,62.22
2018-04-13T14:39:57.846Z,61.19
2018-04-13T14:42:26.205Z,60.89
2018-04-13T14:44:54.589Z,61.60
2018-04-13T14:47:22.962Z,59.20
2018-04-13T14:49:51.340Z,60.38
2018-04-13T14:52:19.741Z,60.04
2018-04-13T14:54:48.122Z,58.82
2018-04-13T14:57:16.541Z,57.52
2018-04-13T14:59:44.929Z,61.29
2018-04-13T15:02:13.354Z,59.67
2018-04-13T15:04:41.744Z,58.96
2018-04-13T15:07:10.105Z,59.90
2018-04-13T15:09:38.502Z,59.53
2018-04-13T15:12:06.893Z,61.57
2018-04-13T15:14:35.304Z,59.63
2018-04-13T15:17:03.670Z,58.83
2018-04-13T15:19:32.058Z,57.58
2018-04-13T15:22:00.566Z,60.75
2018-04-13T15:24:29.013Z,59.58
2018-04-13T15:26:57.406Z,61.36
2018-04-13T15:29:25.763Z,58.68
2018-04-13T15:31:54.135Z,61.19
2018-04-13T15:34:22.616Z,59.89
2018-04-13T15:36:51.199Z,60.67
2018-04-13T15:39:19.712Z,59.63
2018-04-13T15:41:48.118Z,59.98
2018-04-13T15:44:16.534Z,61.23
2018-04-13T15:46:45.027Z,60.21
2018-04-13T15:49:13.689Z,58.67
2018-04-13T15:51:42.323Z,59.24
2018-04-13T15:54:10.687Z,57.78
2018-04-13T15:56:39.065Z,57.57
2018-04-13T15:59:07.443Z,57.74
2018-04-13T16:01:35.920Z,56.96
2018-04-13T16:04:04.274Z,56.53
2018-04-13T16:06:32.634Z,57.75
2018-04-13T16:09:01.022Z,56.81
2018-04-13T16:11:29.505Z,57.52
2018-04-13T16:13:57.972Z,56.62
2018-04-13T16:16:26.419Z,59.21
2018-04-13T16:18:54.780Z,58.31
2018-04-13T16:21:23.169Z,58.44
2018-04-13T16:23:51.530Z,56.56
2018-04-13T16:26:19.953Z,57.70
2018-04-13T16:28:48.328Z,54.54
2018-04-13T16:31:16.713Z,54.83
2018-04-13T16:33:45.085Z,56.49
2018-04-13T16:36:13.604Z,56.38
2018-04-13T16:38:41.969Z,53.77
2018-04-13T16:41:10.339Z,55.58
2018-04-13T16:43:38.711Z,54.98
2018-04-13T16:46:07.145Z,54.29
2018-04-13T16:48:35.775Z,52.64
2018-04-13T16:51:04.133Z,51.94
2018-04-13T16:53:32.710Z,52.02
2018-04-13T16:56:01.073Z,52.05
2018-04-13T16:58:29.483Z,52.02
2018-04-13T17:00:57.871Z,51.62
2018-04-13T17:03:26.350Z,52.96
2018-04-13T17:05:54.749Z,51.78
2018-04-13T17:08:23.241Z,51.79
2018-04-13T17:10:51.780Z,52.58
2018-04-13T17:13:20.212Z,50.89
2018-04-13T17:15:48.595Z,54.25
2018-04-13T17:18:17.061Z,54.74
2018-04-13T17:20:45.544Z,55.01
2018-04-13T17:23:14.100Z,55.71
2018-04-13T17:25:42.505Z,56.17
2018-04-13T17:28:10.900Z,55.29
2018-04-13T17:30:39.397Z,54.34
2018-04-13T17:33:07.805Z,55.88
2018-04-13T17:35:36.204Z,55.89
2018-04-13T17:38:04.757Z,54.79
2018-04-13T17:40:33.171Z,55.41
2018-04-13T17:43:01.514Z,57.21
2018-04-13T17:45:29.920Z,55.43
2018-04-13T17:47:58.391Z,57.48
2018-04-13T17:50:26.915Z,55.16
2018-04-13T17:52:55.309Z,54.71
2018-04-13T17:55:23.825Z,59.28
2018-04-13T17:57:52.191Z,57.76
2018-04-13T18:00:20.626Z,56.73
2018-04-13T18:02:49.180Z,59.19
2018-04-13T18:05:17.566Z,59.44
2018-04-13T18:07:45.973Z,57.58
2018-04-13T18:10:14.345Z,58.71
2018-04-13T18:12:42.723Z,61.61
2018-04-13T18:15:11.142Z,60.69
2018-04-13T18:17:39.524Z,63.30
2018-04-13T18:20:08.011Z,61.90
2018-04-13T18:22:36.409Z,61.70
2018-04-13T18:25:04.822Z,61.88
2018-04-13T18:27:33.233Z,63.30
2018-04-13T18:30:01.692Z,63.44
2018-04-13T18:32:30.311Z,60.64
2018-04-13T18:34:58.713Z,65.01
2018-04-13T18:37:27.125Z,61.52
2018-04-13T18:39:55.509Z,62.27
2018-04-13T18:42:24.040Z,62.79
2018-04-13T18:44:52.445Z,63.32
2018-04-13T18:47:20.868Z,61.81
2018-04-13T18:49:49.297Z,61.12
2018-04-13T18:52:17.681Z,60.57
2018-04-13T18:54:46.553Z,62.17
2018-04-13T18:57:14.995Z,63.47
2018-04-13T18:59:43.418Z,61.69
2018-04-13T19:02:11.781Z,61.56
2018-04-13T19:04:40.160Z,64.74
2018-04-13T19:07:08.574Z,63.19
2018-04-13T19:09:36.964Z,62.04
2018-04-13T19:12:05.443Z,59.71
2018-04-13T19:14:34.226Z,58.71
2018-04-13T19:17:02.630Z,59.30
2018-04-13T19:19:31.031Z,61.07
2018-04-13T19:21:59.423Z,60.85
2018-04-13T19:24:27.989Z,61.47
2018-04-13T19:26:56.389Z,59.10
2018-04-13T19:29:24.796Z,60.21
2018-04-13T19:31:53.191Z,60.64
2018-04-13T19:34:21.587Z,60.28
2018-04-13T19:36:50.052Z,59.41
2018-04-13T19:39:18.546Z,57.34
2018-04-13T19:41:47.065Z,57.12
2018-04-13T19:44:15.493Z,57.86
2018-04-13T19:46:44.021Z,58.07
2018-04-13T19:49:12.410Z,57.93
2018-04-13T19:51:40.816Z,57.89
2018-04-13T19:54:09.266Z,59.69
2018-04-13T19:56:37.694Z,59.15
2018-04-13T19:59:06.184Z,61.53
2018-04-13T20:01:34.588Z,60.70
2018-04-13T20:04:02.957Z,60.18
2018-04-13T20:06:31.353Z,60.00
2018-04-13T20:08:59.713Z,58.45
2018-04-13T20:11:28.159Z,59.99
2018-04-13T20:13:56.529Z,61.87
2018-04-13T20:16:24.922Z,59.83
2018-04-13T20:18:53.306Z,60.99
2018-04-13T20:21:21.673Z,59.92
2018-04-13T20:23:50.111Z,59.22
2018-04-13T20:26:18.461Z,59.61
2018-04-13T20:28:46.856Z,61.07
2018-04-13T20:31:15.249Z,59.96
2018-04-13T20:33:43.643Z,61.65
2018-04-13T20:36:12.077Z,62.07
2018-04-13T20:38:40.478Z,63.48
2018-04-13T20:41:08.846Z,61.61
2018-04-13T20:43:37.231Z,61.34
2018-04-13T20:46:05.593Z,62.98
2018-04-13T20:48:34.354Z,60.73
2018-04-13T20:51:02.771Z,61.51
2018-04-13T20:53:31.289Z,62.53
2018-04-13T20:55:59.690Z,63.27
2018-04-13T20:58:28.090Z,60.44
2018-04-13T21:00:56.475Z,60.74
2018-04-13T21:03:24.888Z,60.52
2018-04-13T21:05:53.441Z,60.09
2018-04-13T21:08:21.855Z,60.41
2018-04-13T21:10:50.252Z,64.39
2018-04-13T21:13:18.805Z,61.13
2018-04-13T21:15:47.205Z,64.98
2018-04-13T21:18:15.594Z,64.95
2018-04-13T21:20:43.970Z,64.58
2018-04-13T21:23:12.425Z,62.36
2018-04-13T21:25:40.822Z,62.64
2018-04-13T21:28:09.266Z,65.87
2018-04-13T21:30:37.657Z,62.77
2018-04-13T21:33:06.049Z,62.45
2018-04-13T21:35:34.542Z,64.88
2018-04-13T21:38:02.933Z,64.22
2018-04-13T21:40:31.331Z,65.91
2018-04-13T21:42:59.721Z,65.14
2018-04-13T21:45:28.117Z,66.96
2018-04-13T21:47:56.578Z,65.06
2018-04-13T21:50:24.976Z,67.53
2018-04-13T21:52:53.377Z,66.31
2018-04-13T21:55:21.850Z,68.73
2018-04-13T21:57:50.257Z,69.42
2018-04-13T22:00:18.804Z,67.69
2018-04-13T22:02:47.197Z,70.55
2018-04-13T22:05:15.603Z,71.28
2018-04-13T22:07:44.003Z,70.59
2018-04-13T22:10:12.416Z,69.62
2018-04-13T22:12:52.607Z,70.96
2018-04-13T22:15:26.915Z,70.01
2018-04-13T22:17:55.362Z,67.30
2018-04-13T22:20:23.725Z,67.45
2018-04-13T22:22:52.197Z,70.06
2018-04-13T22:25:20.693Z,69.19
2018-04-13T22:27:49.061Z,67.48
2018-04-13T22:30:17.682Z,68.47
2018-04-13T22:32:46.043Z,68.48
2018-04-13T22:35:14.454Z,67.18
2018-04-13T22:37:42.822Z,68.32
2018-04-13T22:40:11.228Z,67.74
2018-04-13T22:42:39.727Z,69.04
2018-04-13T22:45:08.144Z,66.24
2018-04-13T22:47:36.502Z,68.39
2018-04-13T22:50:04.887Z,66.53
2018-04-13T22:52:33.254Z,65.37
2018-04-13T22:55:01.642Z,65.04
2018-04-13T22:57:30.041Z,65.82
2018-04-13T22:59:58.447Z,64.97
2018-04-13T23:02:26.813Z,64.11
2018-04-13T23:04:55.260Z,65.85
2018-04-13T23:07:23.625Z,65.37
2018-04-13T23:09:52.021Z,66.65
2018-04-13T23:12:20.434Z,68.72
2018-04-13T23:14:48.809Z,66.20
2018-04-13T23:17:17.233Z,67.64
2018-04-13T23:19:45.616Z,67.09
2018-04-13T23:22:25.738Z,64.31
2018-04-13T23:24:54.154Z,68.43
2018-04-13T23:27:22.533Z,68.54
2018-04-13T23:29:50.898Z,67.72
2018-04-13T23:32:19.303Z,66.65
2018-04-13T23:34:47.756Z,65.75
2018-04-13T23:37:16.157Z,62.65
2018-04-13T23:39:44.556Z,63.95
2018-04-13T23:42:12.991Z,61.32
2018-04-13T23:44:41.390Z,63.40
2018-04-13T23:47:09.818Z,61.30
2018-04-13T23:49:38.210Z,61.99
2018-04-13T23:52:06.666Z,62.84
2018-04-13T23:54:35.054Z,62.69
2018-04-13T23:57:03.465Z,62.35
2018-04-13T23:59:31.958Z,64.47
